»·PEaware :: N5758Q KSBA-KSMX

N5758Q :: KSBA-KSMX

FLIGHT INFORMATION

Flight Status: Arrived
Operator: Privately registered:
United States
More flights under this callsign
Pilot: Brad L. (9580)
Aircraft: MOONEY M-20 201 202 205 220 ATS MSE
(M20P)
More flights by this aircraft type
Origin: KSBA Santa Barbara Mun
United States
Destination: KSMX Santa Maria Pub/Capt Hancock
United States
More flights between these airports :: More routes between these airports
Route: +HABUT4 GVO
File this flight plan on PilotEdge
Remarks: -
Altitude:
(Current/Filed)
6,000ft
Speed:
(Current/Filed)
130kts
Departed: 04-Jun-17 05:10 PM
Arrived: 04-Jun-17 05:55 PM
Distance/Time
Traveled:
41nm/0:45
Distance/Time
To Go:
Arrived

Flight Plot

Page will automatically refresh every two minutes.


Map Options




Map Legend


Flown Route
Filed Route
Departure Airport
Arrival Airport
Navaid (VOR, NDB)
Fix

Horizontal Profiles

Position Reports

Time Latitude Longitude Heading Altitude Ground
Speed
04-Jun-17 16:50 34.432506 -119.835248 170 16ft 0kts
04-Jun-17 16:51 34.432506 -119.835248 170 16ft 0kts
04-Jun-17 16:52 34.432506 -119.835248 170 16ft 0kts
04-Jun-17 16:53 34.432506 -119.835248 170 16ft 0kts
04-Jun-17 16:54 34.432506 -119.835248 170 16ft 0kts
04-Jun-17 16:55 34.432506 -119.835248 170 16ft 0kts
04-Jun-17 16:56 34.432506 -119.835248 170 16ft 0kts
04-Jun-17 16:57 34.432506 -119.835248 170 16ft 0kts
04-Jun-17 16:58 34.432506 -119.835248 170 16ft 0kts
04-Jun-17 16:59 34.432506 -119.835248 170 16ft 0kts
04-Jun-17 17:00 34.432506 -119.835248 170 16ft 0kts
04-Jun-17 17:01 34.432506 -119.835248 170 16ft 0kts
04-Jun-17 17:02 34.432506 -119.835248 170 16ft 0kts
04-Jun-17 17:03 34.432506 -119.835248 170 16ft 0kts
04-Jun-17 17:04 34.432506 -119.835248 170 16ft 0kts
04-Jun-17 17:05 34.432506 -119.835248 170 16ft 0kts
04-Jun-17 17:06 34.432506 -119.835248 170 16ft 0kts
04-Jun-17 17:07 34.432506 -119.835248 170 16ft 0kts
04-Jun-17 17:08 34.432506 -119.835248 170 16ft 0kts
04-Jun-17 17:09 34.430879 -119.835336 178 16ft 15kts
04-Jun-17 17:10 34.428663 -119.835215 175 16ft 0kts
04-Jun-17 17:11 34.428663 -119.835215 175 16ft 0kts
04-Jun-17 17:12 34.427804 -119.838695 267 16ft 63kts
04-Jun-17 17:13 34.426867 -119.871644 267 784ft 115kts
04-Jun-17 17:14 34.425823 -119.910961 270 1720ft 120kts
04-Jun-17 17:15 34.425936 -119.951784 270 2567ft 124kts
04-Jun-17 17:16 34.425585 -119.993635 267 3392ft 126kts
04-Jun-17 17:17 34.425699 -120.036311 280 4157ft 130kts
04-Jun-17 17:18 34.456265 -120.057296 344 4830ft 133kts
04-Jun-17 17:19 34.491938 -120.073248 338 5478ft 138kts
04-Jun-17 17:20 34.528741 -120.090044 341 5992ft 150kts
04-Jun-17 17:21 34.561828 -120.121411 320 6123ft 170kts
04-Jun-17 17:22 34.589815 -120.155612 308 6017ft 177kts
04-Jun-17 17:23 34.619421 -120.199433 307 6009ft 162kts
04-Jun-17 17:24 34.650539 -120.237777 314 5749ft 162kts
04-Jun-17 17:25 34.681698 -120.275619 313 5331ft 157kts
04-Jun-17 17:26 34.711356 -120.313087 312 4302ft 154kts
04-Jun-17 17:27 34.745486 -120.344117 327 3169ft 153kts
04-Jun-17 17:28 34.780320 -120.368226 329 2511ft 131kts
04-Jun-17 17:29 34.809289 -120.387970 327 2285ft 114kts
04-Jun-17 17:30 34.836101 -120.406372 328 1974ft 106kts
04-Jun-17 17:31 34.859949 -120.422836 330 1686ft 93kts
04-Jun-17 17:32 34.883488 -120.439671 325 2186ft 104kts
04-Jun-17 17:33 34.909748 -120.459374 332 3103ft 112kts
04-Jun-17 17:34 34.933769 -120.472313 342 3471ft 129kts
04-Jun-17 17:35 34.964518 -120.494745 312 3922ft 133kts
04-Jun-17 17:36 34.987381 -120.531837 307 4031ft 145kts
04-Jun-17 17:37 35.013619 -120.570492 308 4019ft 152kts
04-Jun-17 17:38 35.039346 -120.608442 308 4006ft 139kts
04-Jun-17 17:39 35.062772 -120.644330 306 4007ft 132kts
04-Jun-17 17:40 35.085522 -120.679187 312 4008ft 130kts
04-Jun-17 17:41 35.110229 -120.711042 314 4003ft 129kts
04-Jun-17 17:42 35.136195 -120.705966 94 4016ft 153kts
04-Jun-17 17:43 35.100952 -120.682085 160 3951ft 153kts
04-Jun-17 17:44 35.073276 -120.647929 67 3873ft 156kts
04-Jun-17 17:45 35.100232 -120.652199 311 4000ft 122kts
04-Jun-17 17:46 35.123980 -120.682720 312 4008ft 125kts
04-Jun-17 17:47 35.135228 -120.717386 225 4006ft 135kts
04-Jun-17 17:48 35.100236 -120.698162 132 3812ft 169kts
04-Jun-17 17:49 35.076518 -120.662946 134 3631ft 176kts
04-Jun-17 17:50 35.041701 -120.621308 138 3505ft 173kts
04-Jun-17 17:51 35.004222 -120.583526 144 3278ft 175kts
04-Jun-17 17:52 34.967005 -120.545111 138 2867ft 173kts
04-Jun-17 17:53 34.930872 -120.507373 144 2198ft 166kts
04-Jun-17 17:54 34.894521 -120.474698 134 1224ft 164kts
04-Jun-17 17:55 34.864766 -120.438797 100 1134ft 131kts
04-Jun-17 17:56 34.882245 -120.433605 313 687ft 96kts
04-Jun-17 17:57 34.897682 -120.451654 307 264ft 19kts
04-Jun-17 17:58 34.899005 -120.449456 65 264ft 13kts

Navigation Log

Ident Type
1. KSBA Airport
2. HABUT Fix
3. SOSYY Fix
4. GVO Navaid
5. KSMX Airport